Time;durP1;ratioP1;P1;durP2;ratioP2;P2;SDS_P1;SDS_P2;PMS_P1;PMS_P2;Temp;Humidity;BMP_temperature;BMP_pressure;BME280_temperature;BME280_humidity;BME280_pressure;Samples;Min_cycle;Max_cycle;Signal;HPM_P1;HPM_P2
2022/11/15 00:01:09;;;;;;;;;6.00;5.00;;;;;13.15;72.23;100305.22;5015353;28;45932;-74
2022/11/15 00:03:35;;;;;;;;;4.00;3.00;;;;;13.06;71.94;100298.13;4997496;28;45626;-74
2022/11/15 00:06:04;;;;;;;;;7.50;7.25;;;;;13.11;72.50;100306.44;5015590;28;46495;-73
2022/11/15 00:08:33;;;;;;;;;8.00;5.25;;;;;13.06;72.30;100297.28;4997786;28;47370;-73
2022/11/15 00:14:20;;;;;;;;;4.00;4.00;;;;;13.01;72.11;100305.53;5015392;28;45788;-75
2022/11/15 00:16:45;;;;;;;;;5.00;4.00;;;;;12.95;72.36;100300.84;5015184;28;46476;-74
2022/11/15 00:19:10;;;;;;;;;6.00;5.00;;;;;12.97;71.85;100299.72;5015184;28;46956;-73
2022/11/15 00:21:36;;;;;;;;;7.00;4.00;;;;;12.96;72.12;100299.84;5015410;28;45702;-73
2022/11/15 00:24:01;;;;;;;;;4.00;3.00;;;;;12.93;72.00;100297.50;5015463;28;45750;-73
2022/11/15 00:26:27;;;;;;;;;3.75;2.50;;;;;12.90;72.31;100285.44;4997213;28;47529;-73
2022/11/15 00:28:53;;;;;;;;;4.00;4.00;;;;;12.90;71.91;100293.31;5015193;28;46349;-74
2022/11/15 00:31:18;;;;;;;;;4.75;3.00;;;;;12.91;72.33;100287.09;4997179;28;45803;-74
2022/11/15 00:33:44;;;;;;;;;4.25;3.00;;;;;12.87;72.22;100288.34;5016122;28;45666;-73
2022/11/15 00:36:10;;;;;;;;;3.75;3.00;;;;;12.84;71.90;100274.63;5015225;28;47635;-73
2022/11/15 00:38:38;;;;;;;;;2.50;2.00;;;;;12.89;72.20;100278.53;5016045;28;46454;-74
2022/11/15 00:44:25;;;;;;;;;2.00;2.00;;;;;12.88;71.77;100276.88;5014382;28;45535;-73
2022/11/15 00:46:50;;;;;;;;;7.00;2.50;;;;;12.88;71.88;100273.41;5015333;28;45575;-74
2022/11/15 00:49:16;;;;;;;;;2.25;2.00;;;;;12.87;71.46;100272.56;5015117;28;46273;-74
2022/11/15 00:51:41;;;;;;;;;3.25;2.00;;;;;12.76;71.41;100253.41;5015213;28;45603;-73
2022/11/15 00:54:06;;;;;;;;;2.00;2.00;;;;;12.80;71.69;100266.16;5014955;28;45832;-73
2022/11/15 00:59:54;;;;;;;;;1.00;1.00;;;;;12.80;71.77;100263.53;5014685;28;46223;-73
2022/11/15 01:02:19;;;;;;;;;2.75;2.00;;;;;12.79;71.38;100268.94;5014740;28;45666;-74
2022/11/15 01:04:44;;;;;;;;;2.50;2.00;;;;;12.80;71.61;100254.81;4997158;28;45551;-75
2022/11/15 01:07:10;;;;;;;;;4.00;2.00;;;;;12.78;71.63;100254.97;5014475;28;47273;-74
2022/11/15 01:09:36;;;;;;;;;2.50;2.25;;;;;12.78;71.18;100254.97;4996588;28;46754;-74
2022/11/15 01:12:01;;;;;;;;;3.00;3.00;;;;;12.78;71.27;100257.59;5014151;28;45445;-74
2022/11/15 01:14:27;;;;;;;;;3.25;2.75;;;;;12.78;71.04;100248.88;4995778;28;45719;-74
2022/11/15 01:16:52;;;;;;;;;2.00;2.00;;;;;12.76;71.32;100251.63;5014148;28;45770;-74
2022/11/15 01:19:18;;;;;;;;;3.00;2.00;;;;;12.77;71.27;100248.03;5014863;28;46439;-75
2022/11/15 01:21:43;;;;;;;;;2.75;2.50;;;;;12.62;71.05;100217.81;5014576;28;45524;-72
2022/11/15 01:24:12;;;;;;;;;3.25;3.00;;;;;12.72;71.37;100231.00;5014573;28;45422;-74
2022/11/15 01:29:59;;;;;;;;;4.75;3.75;;;;;12.71;71.41;100234.56;5014343;28;46237;-74
2022/11/15 01:32:25;;;;;;;;;4.25;3.50;;;;;12.70;71.00;100238.16;5014311;28;46016;-74
2022/11/15 01:34:50;;;;;;;;;5.50;3.50;;;;;12.68;71.02;100232.22;5014500;28;45655;-74
2022/11/15 01:37:15;;;;;;;;;4.75;2.25;;;;;12.60;71.17;100220.56;5013634;28;47596;-76
2022/11/15 01:39:41;;;;;;;;;2.50;2.00;;;;;12.62;70.91;100215.19;4996802;28;45768;-74
2022/11/15 01:45:28;;;;;;;;;3.50;3.00;;;;;12.54;70.95;100217.63;5012282;28;45840;-73
2022/11/15 01:47:55;;;;;;;;;4.00;2.75;;;;;12.57;70.99;100215.59;5014075;28;45593;-74
2022/11/15 01:50:27;;;;;;;;;3.75;3.00;;;;;12.55;71.19;100209.63;5013875;28;46114;-73
2022/11/15 01:52:53;;;;;;;;;3.25;3.00;;;;;12.53;71.07;100208.91;5014116;28;45501;-75
2022/11/15 01:55:24;;;;;;;;;4.75;3.75;;;;;12.50;70.70;100196.03;5014099;28;45530;-74
2022/11/15 01:57:55;;;;;;;;;2.50;2.50;;;;;12.49;71.28;100197.00;5013741;28;45726;-74
2022/11/15 02:00:20;;;;;;;;;3.00;3.00;;;;;12.47;70.98;100185.78;5013986;28;46137;-75
2022/11/15 02:02:46;;;;;;;;;2.75;1.75;;;;;12.45;70.98;100179.84;5014035;28;45579;-75
2022/11/15 02:05:12;;;;;;;;;2.25;2.00;;;;;12.37;70.87;100177.03;5013714;28;45617;-74
2022/11/15 02:07:37;;;;;;;;;3.00;3.00;;;;;12.33;70.84;100165.13;5013491;28;47157;-74
2022/11/15 02:17:27;;;;;;;;;3.25;2.00;;;;;12.27;70.88;100164.81;5013548;28;45692;-73
2022/11/15 02:20:35;;;;;;;;;2.25;2.00;;;;;12.29;70.89;100163.72;4952533;28;46633;-73
2022/11/15 02:23:36;;;;;;;;;3.00;3.00;;;;;12.26;70.58;100158.72;4947215;28;47135;-74
2022/11/15 02:30:11;;;;;;;;;4.00;4.00;;;;;12.19;70.63;100141.84;4956164;28;45709;-75
2022/11/15 02:33:08;;;;;;;;;5.75;4.00;;;;;12.17;70.42;100144.59;4917159;28;47673;-74
2022/11/15 02:35:48;;;;;;;;;4.00;3.00;;;;;12.12;70.41;100140.69;4913381;28;46318;-74
2022/11/15 02:38:34;;;;;;;;;3.25;3.25;;;;;12.07;70.59;100132.38;4917307;28;45725;-74
2022/11/15 02:41:14;;;;;;;;;3.75;3.00;;;;;12.11;70.45;100128.50;4917545;28;45586;-74
2022/11/15 02:44:05;;;;;;;;;3.00;3.00;;;;;12.10;70.51;100124.22;4917092;28;46531;-75
2022/11/15 02:49:38;;;;;;;;;3.00;3.00;;;;;12.07;70.44;100122.69;4917084;28;45829;-73
2022/11/15 02:52:03;;;;;;;;;3.75;3.00;;;;;12.07;70.47;100114.00;4917408;28;45691;-72
2022/11/15 02:54:31;;;;;;;;;3.00;3.00;;;;;12.07;70.18;100119.25;4917181;28;46565;-75
2022/11/15 02:57:38;;;;;;;;;3.25;2.75;;;;;12.05;70.04;100110.66;4934627;28;46811;-74
2022/11/15 03:00:12;;;;;;;;;4.00;3.00;;;;;12.03;70.29;100100.31;4917181;28;45779;-74
2022/11/15 03:02:40;;;;;;;;;3.00;2.50;;;;;12.02;70.29;100097.78;4917047;28;45600;-73
2022/11/15 03:05:20;;;;;;;;;6.75;3.25;;;;;11.98;69.94;100092.00;4916841;28;46343;-74
2022/11/15 03:08:20;;;;;;;;;2.50;2.50;;;;;11.96;69.90;100088.66;4916864;28;45975;-75
2022/11/15 03:14:44;;;;;;;;;3.00;2.00;;;;;11.92;70.12;100084.63;4935965;28;45806;-74
2022/11/15 03:17:24;;;;;;;;;2.75;2.75;;;;;11.86;69.87;100068.56;4894072;28;46580;-74
2022/11/15 03:20:05;;;;;;;;;2.75;1.50;;;;;11.90;69.84;100072.56;4935952;28;46166;-75
2022/11/15 03:22:38;;;;;;;;;3.00;2.50;;;;;11.90;70.12;100065.53;4935967;28;45587;-74
2022/11/15 03:25:08;;;;;;;;;2.25;2.00;;;;;11.90;69.86;100064.72;4935998;28;45704;-74
2022/11/15 03:27:43;;;;;;;;;3.25;2.00;;;;;11.88;69.79;100064.00;4935696;28;46690;-74
2022/11/15 03:30:10;;;;;;;;;4.00;1.75;;;;;11.88;69.74;100066.63;4935921;28;46780;-74
2022/11/15 03:32:53;;;;;;;;;3.00;3.00;;;;;11.86;69.80;100064.16;4935552;28;45891;-74
2022/11/15 03:35:22;;;;;;;;;2.00;2.00;;;;;11.86;69.74;100064.16;4935534;28;45651;-74
2022/11/15 03:38:00;;;;;;;;;3.25;2.00;;;;;11.78;69.78;100045.59;4934375;28;45728;-75
2022/11/15 03:40:35;;;;;;;;;3.50;2.75;;;;;11.82;69.69;100044.38;4935679;28;45953;-75
2022/11/15 03:43:26;;;;;;;;;4.00;3.00;;;;;11.84;69.59;100046.84;4935377;28;45600;-75
2022/11/15 03:46:01;;;;;;;;;2.00;2.00;;;;;11.78;69.65;100041.16;4966011;28;45626;-74
2022/11/15 03:48:33;;;;;;;;;2.00;2.00;;;;;11.82;69.56;100051.41;5016024;28;45956;-74
2022/11/15 03:50:58;;;;;;;;;3.25;3.00;;;;;11.80;69.61;100046.28;5015965;28;46078;-74
2022/11/15 03:53:24;;;;;;;;;3.25;3.00;;;;;11.76;69.50;100043.09;5015978;28;45632;-73
2022/11/15 03:55:49;;;;;;;;;5.75;2.50;;;;;11.76;69.69;100043.09;5015643;28;45610;-74
2022/11/15 03:58:14;;;;;;;;;4.00;3.25;;;;;11.76;69.60;100042.28;5015672;28;47502;-75
2022/11/15 04:00:40;;;;;;;;;4.00;2.00;;;;;11.74;69.64;100036.31;5016147;28;46156;-73
2022/11/15 04:03:07;;;;;;;;;5.00;2.00;;;;;11.76;69.52;100039.66;5015677;28;45710;-75
2022/11/15 04:05:32;;;;;;;;;4.00;2.25;;;;;11.72;69.38;100031.16;5015818;28;45725;-74
2022/11/15 04:07:57;;;;;;;;;2.00;1.50;;;;;11.74;69.65;100034.53;5015651;28;47347;-74
2022/11/15 04:10:23;;;;;;;;;5.00;3.00;;;;;11.71;69.63;100028.69;5015512;28;45730;-74
2022/11/15 04:12:49;;;;;;;;;7.50;2.75;;;;;11.68;69.64;100018.44;5015627;28;45595;-74
2022/11/15 04:15:19;;;;;;;;;2.75;2.50;;;;;11.69;69.49;100026.19;5015572;28;45621;-74
2022/11/15 04:17:50;;;;;;;;;3.00;2.00;;;;;11.66;69.45;100017.75;5015498;28;45518;-74
2022/11/15 04:25:55;;;;;;;;;2.00;1.00;;;;;11.61;69.51;100020.72;5015541;28;45680;-73
2022/11/15 04:28:21;;;;;;;;;2.00;2.00;;;;;11.59;69.65;100016.59;5014849;28;47015;-74
2022/11/15 04:30:47;;;;;;;;;3.00;2.00;;;;;11.57;69.58;100018.50;5015219;28;46158;-73
2022/11/15 04:33:12;;;;;;;;;3.25;2.00;;;;;11.55;69.62;100021.25;5015460;28;45524;-74
2022/11/15 04:35:37;;;;;;;;;2.00;1.75;;;;;11.52;69.73;100010.19;5015289;28;45675;-74
2022/11/15 04:38:05;;;;;;;;;3.00;2.00;;;;;11.52;69.71;100013.66;5014834;28;46314;-75
2022/11/15 04:40:31;;;;;;;;;2.50;2.50;;;;;11.48;69.52;100004.38;5015232;28;46316;-73
2022/11/15 04:42:57;;;;;;;;;2.25;1.00;;;;;11.48;69.63;100004.38;5015399;28;45558;-75
2022/11/15 04:45:23;;;;;;;;;2.25;2.00;;;;;11.42;69.88;99988.34;5014418;28;45691;-74
2022/11/15 04:47:49;;;;;;;;;2.00;2.00;;;;;11.36;69.94;99990.50;5014776;28;45747;-73
2022/11/15 04:50:16;;;;;;;;;3.00;2.00;;;;;11.38;69.86;99981.69;5014818;28;45618;-73
2022/11/15 04:52:43;;;;;;;;;3.00;2.00;;;;;11.33;69.96;99975.03;5014860;28;45570;-73
2022/11/15 04:55:11;;;;;;;;;3.00;2.00;;;;;11.31;69.86;99970.88;5015223;28;45687;-72
2022/11/15 04:57:37;;;;;;;;;2.00;2.00;;;;;11.31;69.95;99973.50;5014802;28;45648;-73
2022/11/15 05:00:11;;;;;;;;;2.00;2.00;;;;;11.33;70.14;99979.47;4996866;28;47084;-75
2022/11/15 05:05:21;;;;;;;;;1.75;1.75;;;;;11.28;70.09;99964.09;5014490;28;45593;-75
2022/11/15 05:07:46;;;;;;;;;1.50;1.50;;;;;11.24;70.28;99954.81;5014829;28;45826;-75
2022/11/15 05:10:11;;;;;;;;;2.75;1.00;;;;;11.25;70.42;99969.59;5014686;28;46700;-73
2022/11/15 05:12:37;;;;;;;;;2.00;1.75;;;;;11.26;70.45;99970.44;5014332;28;45833;-73
2022/11/15 05:15:02;;;;;;;;;3.00;2.00;;;;;11.18;70.51;99965.81;5014555;28;45874;-74
2022/11/15 05:17:28;;;;;;;;;2.00;1.00;;;;;11.21;70.51;99962.97;5014550;28;46554;-75
2022/11/15 05:19:53;;;;;;;;;2.00;1.50;;;;;11.19;70.56;99967.50;5013924;28;45637;-75
2022/11/15 05:22:19;;;;;;;;;2.00;2.00;;;;;11.11;70.61;99964.69;5014692;28;45812;-74
2022/11/15 05:24:44;;;;;;;;;2.25;2.25;;;;;11.14;70.67;99961.81;5014441;28;45709;-75
2022/11/15 05:27:10;;;;;;;;;1.00;1.00;;;;;11.17;70.53;99966.81;5014107;28;46900;-73
2022/11/15 05:32:57;;;;;;;;;7.00;6.00;;;;;11.09;70.93;99950.88;5013970;28;45525;-73
2022/11/15 05:35:38;;;;;;;;;2.75;2.00;;;;;11.14;70.98;99967.03;5014382;28;45530;-75
2022/11/15 05:38:04;;;;;;;;;4.00;3.25;;;;;11.16;71.03;99978.25;5014155;28;45523;-74
2022/11/15 05:40:31;;;;;;;;;3.00;3.00;;;;;11.15;71.19;99965.25;5014399;28;45580;-74
2022/11/15 05:42:59;;;;;;;;;2.00;2.00;;;;;11.19;71.08;99974.53;5014184;28;45617;-74
2022/11/15 05:45:25;;;;;;;;;3.00;3.00;;;;;11.11;71.22;99956.84;5014165;28;45741;-74
2022/11/15 05:47:52;;;;;;;;;2.00;2.00;;;;;11.13;71.12;99954.91;4995987;28;47242;-72
2022/11/15 05:50:18;;;;;;;;;3.75;2.00;;;;;11.16;71.23;99948.56;5013885;28;46139;-75
2022/11/15 05:52:45;;;;;;;;;3.00;2.25;;;;;11.24;71.17;99952.19;4996094;28;45710;-75
2022/11/15 05:55:11;;;;;;;;;2.75;2.00;;;;;11.28;71.17;99958.03;5014043;28;45778;-74
2022/11/15 05:57:37;;;;;;;;;7.00;4.00;;;;;11.26;71.18;99950.28;5013809;28;45687;-75
2022/11/15 06:03:24;;;;;;;;;8.00;7.00;;;;;11.16;71.35;99917.94;5013506;28;45800;-76
2022/11/15 06:05:50;;;;;;;;;4.50;4.50;;;;;11.28;71.41;99935.25;5014044;28;45896;-75
2022/11/15 06:08:15;;;;;;;;;4.25;4.00;;;;;11.30;71.31;99932.50;5013586;28;47260;-75
2022/11/15 06:10:41;;;;;;;;;5.75;5.75;;;;;11.30;71.28;99924.63;5013680;28;46237;-74
2022/11/15 06:13:06;;;;;;;;;6.50;5.00;;;;;11.29;71.50;99929.03;5013884;28;45643;-74
2022/11/15 06:18:53;;;;;;;;;3.25;3.25;;;;;11.32;71.54;99925.34;5013385;28;45672;-73
2022/11/15 06:21:19;;;;;;;;;4.00;4.00;;;;;11.35;71.45;99917.19;5013351;28;46274;-75
2022/11/15 06:23:44;;;;;;;;;6.00;4.50;;;;;11.36;71.56;99901.34;5013729;28;45558;-73
2022/11/15 06:26:09;;;;;;;;;2.00;2.00;;;;;11.38;71.57;99909.09;5013663;28;45591;-74
2022/11/15 06:28:35;;;;;;;;;5.00;4.00;;;;;11.39;71.63;99899.44;5013365;28;47320;-74
2022/11/15 06:31:13;;;;;;;;;90.75;66.50;;;;;11.38;71.84;99893.34;5013417;28;45858;-75
2022/11/15 06:33:39;;;;;;;;;16.50;12.25;;;;;11.36;71.88;99896.09;5013465;28;45813;-74
2022/11/15 06:36:07;;;;;;;;;21.00;18.00;;;;;11.32;71.93;99884.22;5013859;28;45595;-74
2022/11/15 06:38:33;;;;;;;;;5.50;4.50;;;;;11.34;72.13;99881.44;5013531;28;47608;-74
2022/11/15 06:41:07;;;;;;;;;6.00;4.00;;;;;11.32;72.00;99881.59;5013889;28;46070;-73
2022/11/15 06:43:33;;;;;;;;;6.00;6.00;;;;;11.32;72.17;99860.63;5013732;28;45430;-74
2022/11/15 06:49:33;;;;;;;;;8.50;7.00;;;;;11.36;72.23;99863.78;5011813;28;45633;-75
2022/11/15 06:51:59;;;;;;;;;8.50;7.00;;;;;11.38;72.05;99867.13;5013084;28;45631;-73
2022/11/15 06:54:24;;;;;;;;;6.25;4.50;;;;;11.31;72.09;99855.50;5012730;28;45624;-76
2022/11/15 06:56:50;;;;;;;;;10.50;7.50;;;;;11.39;72.34;99866.13;5013032;28;46029;-78
2022/11/15 06:59:15;;;;;;;;;6.75;6.25;;;;;11.40;72.25;99846.81;5013376;28;46348;-75
2022/11/15 07:01:41;;;;;;;;;12.00;9.50;;;;;11.42;72.26;99844.91;4995250;28;47143;-76
2022/11/15 07:04:06;;;;;;;;;7.25;6.50;;;;;11.38;72.17;99833.03;4995541;28;45737;-75
2022/11/15 07:06:31;;;;;;;;;7.00;6.00;;;;;11.45;72.30;99835.94;5012966;28;45571;-76
2022/11/15 07:08:57;;;;;;;;;6.00;5.50;;;;;11.45;72.33;99815.78;5013285;28;45994;-78
2022/11/15 07:11:22;;;;;;;;;7.25;3.75;;;;;11.47;72.39;99810.41;5013713;28;46109;-78
2022/11/15 07:13:47;;;;;;;;;4.00;4.00;;;;;11.42;72.30;99805.56;5016722;28;45622;-76
2022/11/15 07:19:35;;;;;;;;;2.50;2.50;;;;;11.47;72.26;99841.88;5016740;28;45642;-75
2022/11/15 07:22:00;;;;;;;;;4.00;3.00;;;;;11.48;72.21;99836.50;5015847;28;46053;-75
2022/11/15 07:24:25;;;;;;;;;6.25;4.00;;;;;11.51;72.38;99844.09;5016203;28;45736;-77
2022/11/15 07:26:51;;;;;;;;;4.25;3.00;;;;;11.44;72.39;99835.13;5015934;28;45762;-76
2022/11/15 07:29:16;;;;;;;;;6.00;3.00;;;;;11.55;72.30;99839.44;5016204;28;45638;-78
2022/11/15 07:35:03;;;;;;;;;6.00;3.50;;;;;11.56;72.32;99835.81;5016280;28;45664;-74
2022/11/15 07:37:28;;;;;;;;;3.75;3.50;;;;;11.59;72.66;99839.03;5016312;28;45415;-75
2022/11/15 07:39:54;;;;;;;;;4.00;4.00;;;;;11.59;72.63;99835.56;5016065;28;47373;-76
2022/11/15 07:45:04;;;;;;;;;7.50;5.00;;;;;11.59;72.58;99811.97;5015928;28;45670;-75
2022/11/15 07:47:30;;;;;;;;;3.00;3.00;;;;;11.64;72.57;99818.47;5016327;28;45552;-77
2022/11/15 07:49:55;;;;;;;;;3.00;3.00;;;;;11.67;72.81;99802.44;5015795;28;45568;-79
2022/11/15 07:52:20;;;;;;;;;4.00;3.25;;;;;11.71;72.60;99798.56;5016314;28;45684;-76
2022/11/15 07:54:47;;;;;;;;;4.00;4.00;;;;;11.72;72.81;99795.00;5016031;28;45637;-76
2022/11/15 07:57:13;;;;;;;;;5.00;3.00;;;;;11.77;72.57;99791.97;5016157;28;45645;-75
2022/11/15 07:59:38;;;;;;;;;3.00;3.00;;;;;11.75;72.77;99780.81;5016195;28;46292;-76
2022/11/15 08:05:25;;;;;;;;;4.00;4.00;;;;;11.84;72.67;99779.97;5015454;28;45725;-78
2022/11/15 08:07:50;;;;;;;;;3.00;2.00;;;;;11.88;72.56;99788.41;5016207;28;45651;-76
2022/11/15 08:10:18;;;;;;;;;2.00;1.75;;;;;11.91;72.82;99783.72;5015440;28;45608;-74
2022/11/15 08:12:44;;;;;;;;;6.00;3.00;;;;;11.90;72.76;99782.06;5015783;28;46120;-77
2022/11/15 08:15:09;;;;;;;;;5.50;5.25;;;;;11.95;72.62;99785.09;5015445;28;45732;-75
2022/11/15 08:17:35;;;;;;;;;3.00;3.00;;;;;11.95;72.69;99785.09;5015863;28;45576;-76
2022/11/15 08:20:00;;;;;;;;;4.00;3.00;;;;;11.98;72.77;99778.75;5015579;28;47248;-77
2022/11/15 08:22:26;;;;;;;;;5.25;3.75;;;;;11.98;72.44;99779.59;5015436;28;45846;-74
2022/11/15 08:24:51;;;;;;;;;3.25;3.00;;;;;12.05;72.38;99787.72;4997996;28;45568;-74
2022/11/15 08:27:16;;;;;;;;;4.50;4.00;;;;;12.08;72.60;99790.09;5015964;28;45550;-75
2022/11/15 08:29:43;;;;;;;;;3.25;3.25;;;;;12.05;72.51;99771.97;4997220;28;48426;-76
2022/11/15 08:35:30;;;;;;;;;3.25;2.00;;;;;12.16;72.50;99780.53;5015666;28;45947;-80
2022/11/15 08:37:57;;;;;;;;;3.25;3.25;;;;;12.16;72.35;99754.28;5015821;28;45635;-78
2022/11/15 08:40:22;;;;;;;;;3.50;3.00;;;;;12.09;72.22;99747.13;4981575;28;47922;-79
2022/11/15 08:42:48;;;;;;;;;3.75;3.00;;;;;12.22;72.11;99754.69;4997930;28;47811;-79
2022/11/15 08:45:14;;;;;;;;;3.75;3.00;;;;;12.33;72.19;99765.84;4998858;28;45499;-81
2022/11/15 08:47:39;;;;;;;;;4.25;3.00;;;;;12.37;72.08;99767.22;4998982;28;45535;-78
2022/11/15 08:50:05;;;;;;;;;3.00;3.00;;;;;12.32;72.03;99751.06;5016069;28;46376;-74
2022/11/15 08:52:31;;;;;;;;;5.50;4.00;;;;;12.45;72.06;99748.97;5016732;28;46404;-81
2022/11/15 08:54:57;;;;;;;;;3.00;3.00;;;;;12.48;72.19;99746.06;4998339;28;46016;-80
2022/11/15 08:57:22;;;;;;;;;3.25;3.00;;;;;12.49;71.86;99731.94;4997611;28;45900;-75
2022/11/15 08:59:47;;;;;;;;;2.75;2.75;;;;;12.54;71.66;99729.72;4998210;28;46384;-76
2022/11/15 09:05:38;;;;;;;;;4.00;4.00;;;;;12.66;71.77;99721.66;5018333;28;45676;-76
2022/11/15 09:08:04;;;;;;;;;3.00;3.00;;;;;12.70;71.80;99721.22;5015820;28;45878;-75
2022/11/15 09:10:29;;;;;;;;;4.25;4.00;;;;;12.72;71.54;99728.97;5015096;28;46451;-75
2022/11/15 09:12:57;;;;;;;;;4.50;3.00;;;;;12.76;71.33;99718.03;5015073;28;46088;-77
2022/11/15 09:15:22;;;;;;;;;3.50;3.00;;;;;12.75;71.43;99711.09;5014614;28;45671;-77
2022/11/15 09:17:47;;;;;;;;;3.50;2.25;;;;;12.82;71.58;99725.34;5014808;28;45599;-77
2022/11/15 09:20:13;;;;;;;;;3.00;3.00;;;;;12.86;71.27;99723.22;4996822;28;47089;-78
2022/11/15 09:22:38;;;;;;;;;3.75;3.25;;;;;12.77;71.36;99698.66;4996672;28;46557;-77
2022/11/15 09:25:05;;;;;;;;;3.25;2.75;;;;;12.91;71.09;99711.31;5014220;28;45774;-76
2022/11/15 09:27:31;;;;;;;;;3.25;3.25;;;;;12.90;70.95;99707.03;5014861;28;45790;-74
2022/11/15 09:29:56;;;;;;;;;3.00;3.00;;;;;12.85;70.70;99697.91;5014548;28;47631;-80
2022/11/15 09:35:43;;;;;;;;;3.00;3.00;;;;;12.96;70.68;99710.88;5013792;28;45722;-79
2022/11/15 09:38:09;;;;;;;;;3.00;2.75;;;;;13.02;70.43;99719.00;4996481;28;45902;-77
2022/11/15 09:40:38;;;;;;;;;3.50;2.00;;;;;13.02;70.78;99716.38;5013351;28;46664;-76
2022/11/15 09:43:21;;;;;;;;;3.00;2.00;;;;;13.04;70.48;99714.44;5014039;28;46982;-77
2022/11/15 09:46:04;;;;;;;;;2.75;2.00;;;;;13.10;70.79;99714.81;5014363;28;45700;-79
2022/11/15 09:48:49;;;;;;;;;3.00;2.00;;;;;13.13;70.54;99718.00;5014354;28;45450;-78
2022/11/15 09:51:22;;;;;;;;;2.25;1.75;;;;;13.13;70.23;99706.66;5014347;28;46473;-77
2022/11/15 09:53:51;;;;;;;;;3.75;2.00;;;;;13.07;70.72;99697.53;5014615;28;46349;-78
2022/11/15 09:56:27;;;;;;;;;3.00;3.00;;;;;13.21;70.57;99715.47;5014518;28;45655;-80
2022/11/15 09:58:57;;;;;;;;;2.00;2.00;;;;;13.23;70.66;99715.31;4996734;28;45810;-79
2022/11/15 10:01:44;;;;;;;;;2.00;2.00;;;;;13.13;70.58;99696.97;5014140;28;46719;-78
2022/11/15 10:04:10;;;;;;;;;2.25;2.25;;;;;13.25;70.70;99698.41;5013860;28;46116;-81
2022/11/15 10:06:42;;;;;;;;;4.00;2.00;;;;;13.20;70.87;99674.38;5013999;28;45754;-78
2022/11/15 10:09:26;;;;;;;;;3.75;2.75;;;;;13.19;70.95;99679.78;5014151;28;45574;-79
2022/11/15 10:11:51;;;;;;;;;2.50;2.00;;;;;13.28;70.52;99682.31;5012935;28;45666;-80
2022/11/15 10:14:21;;;;;;;;;3.50;3.00;;;;;13.26;70.58;99676.41;5013993;28;45633;-78
2022/11/15 10:17:17;;;;;;;;;3.00;2.00;;;;;13.32;71.05;99683.72;4995875;28;45779;-79
2022/11/15 10:20:03;;;;;;;;;3.25;2.25;;;;;13.13;71.19;99619.88;5014375;28;45707;-78
2022/11/15 10:22:31;;;;;;;;;2.75;2.75;;;;;13.37;70.89;99649.06;5014035;28;45619;-77
2022/11/15 10:25:08;;;;;;;;;3.50;3.00;;;;;13.38;70.85;99643.66;5013838;28;46100;-76
2022/11/15 10:27:34;;;;;;;;;1.75;1.00;;;;;13.39;71.31;99644.44;5014048;28;45512;-79
2022/11/15 10:30:00;;;;;;;;;2.50;2.25;;;;;13.43;71.06;99644.03;5013858;28;45539;-80
2022/11/15 10:32:25;;;;;;;;;3.00;3.00;;;;;13.47;71.27;99651.59;4995791;28;46309;-80
2022/11/15 10:34:51;;;;;;;;;3.00;3.00;;;;;13.49;71.40;99639.13;4995682;28;48030;-80
2022/11/15 10:37:30;;;;;;;;;3.25;3.00;;;;;13.51;71.16;99626.63;5013490;28;45593;-79
2022/11/15 10:40:14;;;;;;;;;4.00;4.00;;;;;13.49;71.40;99623.34;5014050;28;45478;-79
2022/11/15 10:42:39;;;;;;;;;3.00;3.00;;;;;13.54;70.96;99628.97;5013660;28;46512;-79
2022/11/15 10:45:23;;;;;;;;;6.50;3.75;;;;;13.55;71.05;99618.28;4979152;28;45814;-80
2022/11/15 10:47:49;;;;;;;;;4.75;4.00;;;;;13.57;71.40;99623.41;5017107;28;45841;-81
2022/11/15 10:50:30;;;;;;;;;3.00;3.00;;;;;13.55;71.52;99610.38;5011728;28;45955;-78
2022/11/15 10:52:55;;;;;;;;;3.00;3.00;;;;;13.60;71.30;99609.94;5016972;28;45630;-79
2022/11/15 10:55:25;;;;;;;;;3.00;2.00;;;;;13.58;71.51;99604.84;5015185;28;47238;-78
2022/11/15 10:58:19;;;;;;;;;3.00;3.00;;;;;13.58;71.41;99596.94;5016781;28;45837;-80
2022/11/15 11:00:46;;;;;;;;;5.25;3.00;;;;;13.63;71.48;99586.78;5017080;28;45832;-79
2022/11/15 11:03:35;;;;;;;;;4.00;3.00;;;;;13.62;71.84;99579.84;5016449;28;47487;-80
2022/11/15 11:06:18;;;;;;;;;3.00;2.00;;;;;13.63;71.31;99578.03;5016795;28;45965;-81
2022/11/15 11:08:57;;;;;;;;;3.25;2.25;;;;;13.66;71.90;99578.56;5015473;28;45510;-78
2022/11/15 11:11:23;;;;;;;;;3.25;3.00;;;;;13.64;71.40;99570.00;5016718;28;45693;-77
2022/11/15 11:13:48;;;;;;;;;4.25;4.00;;;;;13.66;71.87;99565.41;5016565;28;45691;-79
2022/11/15 11:19:45;;;;;;;;;4.75;4.00;;;;;13.69;71.93;99564.28;5016570;28;45730;-80
2022/11/15 11:22:13;;;;;;;;;4.75;3.75;;;;;13.68;71.74;99558.19;5016887;28;45503;-76
2022/11/15 11:25:03;;;;;;;;;4.25;4.00;;;;;13.70;71.91;99558.88;5016717;28;45570;-81
2022/11/15 11:27:37;;;;;;;;;3.00;3.00;;;;;13.71;72.14;99549.16;5016951;28;46285;-79
2022/11/15 11:30:02;;;;;;;;;5.00;4.00;;;;;13.71;71.77;99549.97;5015493;28;45638;-78
2022/11/15 11:35:52;;;;;;;;;4.00;3.50;;;;;13.73;72.25;99542.75;5016086;28;46021;-76
2022/11/15 11:38:34;;;;;;;;;4.00;2.75;;;;;13.73;72.35;99548.00;5016238;28;45608;-76
2022/11/15 11:41:13;;;;;;;;;5.00;4.00;;;;;13.72;72.01;99546.34;5016121;28;45829;-78
2022/11/15 11:43:59;;;;;;;;;5.00;3.50;;;;;13.73;72.54;99540.13;5015945;28;45927;-75
2022/11/15 11:53:42;;;;;;;;;3.00;3.00;;;;;13.75;72.83;99519.72;4916085;28;45798;-76
2022/11/15 11:56:22;;;;;;;;;3.75;3.00;;;;;13.73;72.71;99511.16;4900543;28;45576;-73
2022/11/15 11:58:50;;;;;;;;;4.00;3.25;;;;;13.77;72.49;99517.75;4915192;28;48403;-78
2022/11/15 12:01:29;;;;;;;;;5.00;4.00;;;;;13.79;72.97;99505.28;4916335;28;45571;-75
2022/11/15 12:07:24;;;;;;;;;4.00;4.00;;;;;13.78;72.85;99498.34;4916315;28;45684;-76
2022/11/15 12:10:15;;;;;;;;;5.75;5.00;;;;;13.72;73.30;99485.81;4915764;28;47622;-79
2022/11/15 12:13:07;;;;;;;;;5.25;4.50;;;;;13.79;72.75;99494.75;4915964;28;46112;-80
2022/11/15 12:15:52;;;;;;;;;8.50;5.75;;;;;13.79;73.08;99492.09;4915782;28;45713;-77
2022/11/15 12:18:18;;;;;;;;;4.50;4.00;;;;;13.82;73.25;99490.94;4916120;28;45611;-76
2022/11/15 12:20:56;;;;;;;;;5.00;4.50;;;;;13.83;73.41;99487.34;4916167;28;47272;-78
2022/11/15 12:23:28;;;;;;;;;5.75;5.00;;;;;13.84;73.54;99473.19;4916029;28;46162;-79
2022/11/15 12:26:33;;;;;;;;;5.00;4.00;;;;;13.87;73.48;99462.38;4942674;28;45645;-80
2022/11/15 12:29:11;;;;;;;;;5.00;5.00;;;;;13.88;73.19;99464.81;4995805;28;45483;-81
2022/11/15 12:34:28;;;;;;;;;5.75;4.00;;;;;13.92;73.47;99457.47;4996065;28;45936;-81
2022/11/15 12:36:54;;;;;;;;;4.00;4.00;;;;;13.95;73.73;99446.59;4996434;28;45439;-79
2022/11/15 12:39:20;;;;;;;;;6.00;5.75;;;;;13.99;73.21;99444.44;4997183;28;45914;-79
2022/11/15 12:41:55;;;;;;;;;8.50;5.50;;;;;14.00;73.28;99439.03;4995489;28;47417;-78
2022/11/15 12:44:35;;;;;;;;;6.75;5.00;;;;;14.04;73.37;99436.91;4995096;28;47089;-77
2022/11/15 12:50:50;;;;;;;;;8.00;6.00;;;;;14.08;73.92;99418.00;4995368;28;45736;-75
2022/11/15 12:53:36;;;;;;;;;5.00;5.00;;;;;14.12;73.40;99432.50;5014334;28;46972;-79
2022/11/15 12:56:11;;;;;;;;;6.00;5.50;;;;;14.14;73.51;99421.81;5014710;28;46037;-78
2022/11/15 12:58:52;;;;;;;;;5.50;5.50;;;;;14.17;73.59;99416.22;5015196;28;45713;-76
2022/11/15 13:07:35;;;;;;;;;8.00;6.00;;;;;14.26;73.61;99394.97;5015188;28;45896;-78
2022/11/15 13:10:21;;;;;;;;;7.25;7.00;;;;;14.27;73.39;99390.53;5014629;28;45851;-80
2022/11/15 13:12:50;;;;;;;;;6.75;6.00;;;;;14.27;73.36;99378.19;5015355;28;45568;-75
2022/11/15 13:15:36;;;;;;;;;5.00;5.00;;;;;14.29;73.46;99370.97;5014740;28;45663;-77
2022/11/15 13:18:23;;;;;;;;;5.75;5.00;;;;;14.31;73.61;99362.88;5014777;28;45560;-76
2022/11/15 13:20:48;;;;;;;;;5.75;5.00;;;;;14.33;73.75;99363.53;5014592;28;45537;-75
2022/11/15 13:23:16;;;;;;;;;4.25;3.25;;;;;14.32;73.46;99364.53;5014736;28;45844;-79
2022/11/15 13:26:00;;;;;;;;;6.25;6.25;;;;;14.37;73.54;99362.25;5014530;28;46442;-78
2022/11/15 13:28:41;;;;;;;;;6.00;5.25;;;;;14.41;73.60;99353.06;5014618;28;46282;-78
2022/11/15 13:31:27;;;;;;;;;5.50;5.50;;;;;14.42;73.74;99351.22;5014890;28;45564;-78
2022/11/15 13:34:00;;;;;;;;;6.00;5.50;;;;;14.41;73.85;99344.31;5014946;28;45672;-74